createdAt,value
2023-05-19T00:00:16.310Z,1020.14
2023-05-19T00:01:16.287Z,1020.15
2023-05-19T00:02:16.344Z,1020.12
2023-05-19T00:03:16.376Z,1020.15
2023-05-19T00:04:16.258Z,1020.15
2023-05-19T00:05:16.276Z,1020.13
2023-05-19T00:06:16.250Z,1020.16
2023-05-19T00:07:16.234Z,1020.14
2023-05-19T00:08:16.217Z,1020.11
2023-05-19T00:09:16.202Z,1020.18
2023-05-19T00:10:16.188Z,1020.11
2023-05-19T00:11:16.174Z,1020.11
2023-05-19T00:12:16.193Z,1020.13
2023-05-19T00:13:16.152Z,1020.12
2023-05-19T00:14:16.154Z,1020.07
2023-05-19T00:15:16.134Z,1020.12
2023-05-19T00:16:16.186Z,1020.08
2023-05-19T00:17:16.112Z,1020.13
2023-05-19T00:18:16.139Z,1020.09
2023-05-19T00:19:16.129Z,1020.09
2023-05-19T00:20:16.079Z,1020.10
2023-05-19T00:21:16.069Z,1020.13
2023-05-19T00:22:16.071Z,1020.08
2023-05-19T00:23:16.055Z,1020.10
2023-05-19T00:24:16.070Z,1020.04
2023-05-19T00:25:16.050Z,1020.05
2023-05-19T00:26:16.012Z,1020.04
2023-05-19T00:27:16.063Z,1020.02
2023-05-19T00:28:15.997Z,1020.04
2023-05-19T00:29:15.990Z,1020.02
2023-05-19T00:30:16.002Z,1020.05
2023-05-19T00:31:15.985Z,1020.02
2023-05-19T00:32:15.983Z,1020.00
2023-05-19T00:33:15.962Z,1019.99
2023-05-19T00:34:15.935Z,1020.00
2023-05-19T00:35:15.950Z,1020.01
2023-05-19T00:36:15.934Z,1019.96
2023-05-19T00:37:15.909Z,1019.98
2023-05-19T00:38:15.897Z,1019.97
2023-05-19T00:39:15.887Z,1019.94
2023-05-19T00:40:15.883Z,1019.98
2023-05-19T00:41:15.882Z,1019.96
2023-05-19T00:42:15.856Z,1019.96
2023-05-19T00:43:15.843Z,1019.96
2023-05-19T00:44:15.831Z,1019.94
2023-05-19T00:45:15.848Z,1019.93
2023-05-19T00:46:15.887Z,1019.98
2023-05-19T00:47:15.821Z,1019.95
2023-05-19T00:48:15.794Z,1019.93
2023-05-19T00:49:15.816Z,1019.97
2023-05-19T00:50:15.779Z,1019.95
2023-05-19T00:51:15.789Z,1019.96
2023-05-19T00:52:15.752Z,1019.96
2023-05-19T00:53:15.735Z,1019.94
2023-05-19T00:54:15.718Z,1019.94
2023-05-19T00:55:15.751Z,1019.94
2023-05-19T00:56:15.707Z,1019.97
2023-05-19T00:57:15.699Z,1019.95
2023-05-19T00:58:15.690Z,1019.97
2023-05-19T00:59:15.692Z,1019.97
2023-05-19T01:00:15.673Z,1020.00
2023-05-19T01:01:15.686Z,1019.96
2023-05-19T01:02:15.637Z,1020.01
2023-05-19T01:03:15.709Z,1019.96
2023-05-19T01:04:15.610Z,1020.01
2023-05-19T01:05:15.633Z,1020.00
2023-05-19T01:06:15.644Z,1019.96
2023-05-19T01:07:15.586Z,1019.98
2023-05-19T01:08:15.570Z,1020.00
2023-05-19T01:09:15.563Z,1019.98
2023-05-19T01:10:15.574Z,1019.98
2023-05-19T01:11:15.557Z,1019.94
2023-05-19T01:12:15.557Z,1019.97
2023-05-19T01:13:15.540Z,1019.91
2023-05-19T01:14:15.505Z,1019.93
2023-05-19T01:15:15.503Z,1019.90
2023-05-19T01:16:15.556Z,1019.90
2023-05-19T01:17:15.475Z,1019.92
2023-05-19T01:18:15.471Z,1019.94
2023-05-19T01:19:15.500Z,1019.93
2023-05-19T01:20:15.445Z,1019.93
2023-05-19T01:21:15.482Z,1019.91
2023-05-19T01:22:15.435Z,1019.92
2023-05-19T01:23:15.404Z,1019.89
2023-05-19T01:24:15.402Z,1019.96
2023-05-19T01:25:15.415Z,1020.01
2023-05-19T01:26:15.381Z,1019.94
2023-05-19T01:27:15.394Z,1019.94
2023-05-19T01:28:15.354Z,1019.97
2023-05-19T01:29:15.341Z,1019.96
2023-05-19T01:30:15.327Z,1019.96
2023-05-19T01:31:15.319Z,1019.98
2023-05-19T01:32:15.371Z,1019.92
2023-05-19T01:33:15.303Z,1019.93
2023-05-19T01:34:15.296Z,1019.93
2023-05-19T01:35:15.277Z,1019.92
2023-05-19T01:36:15.270Z,1019.87
2023-05-19T01:37:15.258Z,1019.95
2023-05-19T01:38:15.267Z,1019.92
2023-05-19T01:39:15.234Z,1019.91
2023-05-19T01:40:15.227Z,1019.91
2023-05-19T01:41:15.212Z,1019.90
2023-05-19T01:42:15.255Z,1019.92
2023-05-19T01:43:15.193Z,1019.93
2023-05-19T01:44:15.208Z,1019.93
2023-05-19T01:45:15.171Z,1019.91
2023-05-19T01:46:15.201Z,1019.94
2023-05-19T01:47:15.146Z,1019.90
2023-05-19T01:48:15.273Z,1019.91
2023-05-19T01:49:15.153Z,1019.89
2023-05-19T01:50:15.125Z,1019.92
2023-05-19T01:51:15.112Z,1019.87
2023-05-19T01:52:15.097Z,1019.96
2023-05-19T01:53:15.086Z,1019.98
2023-05-19T01:54:15.063Z,1019.96
2023-05-19T01:55:15.085Z,1019.95
2023-05-19T01:56:15.077Z,1019.95
2023-05-19T01:57:15.040Z,1019.96
2023-05-19T01:58:15.027Z,1019.99
2023-05-19T01:59:15.042Z,1019.98
2023-05-19T02:00:15.023Z,1019.98
2023-05-19T02:01:15.082Z,1019.95
2023-05-19T02:02:14.999Z,1020.02
2023-05-19T02:03:14.982Z,1020.00
2023-05-19T02:04:14.981Z,1020.01
2023-05-19T02:05:14.986Z,1020.04
2023-05-19T02:06:14.945Z,1020.02
2023-05-19T02:07:14.950Z,1020.03
2023-05-19T02:08:14.932Z,1020.00
2023-05-19T02:09:14.908Z,1020.00
2023-05-19T02:10:14.909Z,1020.03
2023-05-19T02:11:14.890Z,1020.01
2023-05-19T02:12:14.913Z,1020.00
2023-05-19T02:13:14.868Z,1020.05
2023-05-19T02:14:14.873Z,1020.04
2023-05-19T02:15:14.850Z,1020.03
2023-05-19T02:16:14.909Z,1019.99
2023-05-19T02:17:14.821Z,1020.02
2023-05-19T02:18:14.832Z,1020.03
2023-05-19T02:19:14.852Z,1020.02
2023-05-19T02:20:14.776Z,1020.02
2023-05-19T02:21:14.806Z,1020.01
2023-05-19T02:22:14.764Z,1020.06
2023-05-19T02:23:14.754Z,1020.01
2023-05-19T02:24:14.750Z,1020.00
2023-05-19T02:25:14.752Z,1019.98
2023-05-19T02:26:14.726Z,1020.00
2023-05-19T02:27:14.734Z,1019.98
2023-05-19T02:28:14.704Z,1019.93
2023-05-19T02:29:14.695Z,1019.96
2023-05-19T02:30:14.714Z,1019.94
2023-05-19T02:31:14.675Z,1019.92
2023-05-19T02:32:14.795Z,1019.94
2023-05-19T02:33:14.696Z,1019.92
2023-05-19T02:34:14.645Z,1019.91
2023-05-19T02:35:14.651Z,1020.00
2023-05-19T02:36:14.653Z,1019.92
2023-05-19T02:37:14.620Z,1019.97
2023-05-19T02:38:14.603Z,1019.97
2023-05-19T02:39:14.579Z,1019.95
2023-05-19T02:40:14.580Z,1019.99
2023-05-19T02:41:14.554Z,1019.96
2023-05-19T02:42:14.540Z,1019.94
2023-05-19T02:43:14.542Z,1020.02
2023-05-19T02:44:14.514Z,1019.97
2023-05-19T02:45:14.535Z,1019.95
2023-05-19T02:46:14.567Z,1019.93
2023-05-19T02:47:14.492Z,1019.92
2023-05-19T02:48:14.516Z,1019.92
2023-05-19T02:49:14.474Z,1019.97
2023-05-19T02:50:14.482Z,1019.94
2023-05-19T02:51:14.441Z,1019.95
2023-05-19T02:52:14.436Z,1019.95
2023-05-19T02:53:14.418Z,1019.93
2023-05-19T02:54:14.430Z,1019.94
2023-05-19T02:55:14.404Z,1019.91
2023-05-19T02:56:14.404Z,1019.92
2023-05-19T02:57:14.378Z,1019.90
2023-05-19T02:58:14.366Z,1019.93
2023-05-19T02:59:14.361Z,1019.88
2023-05-19T03:00:14.352Z,1019.92
2023-05-19T03:01:14.360Z,1019.89
2023-05-19T03:02:14.512Z,1019.85
2023-05-19T03:03:14.384Z,1019.88
2023-05-19T03:04:14.295Z,1019.89
2023-05-19T03:05:14.380Z,1019.89
2023-05-19T03:06:14.403Z,1019.88
2023-05-19T03:07:14.274Z,1019.85
2023-05-19T03:08:14.259Z,1019.87
2023-05-19T03:09:14.259Z,1019.87
2023-05-19T03:10:14.243Z,1019.89
2023-05-19T03:11:14.230Z,1019.91
2023-05-19T03:12:14.237Z,1019.88
2023-05-19T03:13:14.209Z,1019.88
2023-05-19T03:14:14.191Z,1019.89
2023-05-19T03:15:14.176Z,1019.82
2023-05-19T03:16:14.267Z,1019.86
2023-05-19T03:17:14.178Z,1019.84
2023-05-19T03:18:14.161Z,1019.83
2023-05-19T03:19:14.171Z,1019.76
2023-05-19T03:20:14.128Z,1019.79
2023-05-19T03:21:14.128Z,1019.77
2023-05-19T03:22:14.135Z,1019.74
2023-05-19T03:23:14.107Z,1019.71
2023-05-19T03:24:14.090Z,1019.72
2023-05-19T03:25:14.086Z,1019.69
2023-05-19T03:26:14.212Z,1019.73
2023-05-19T03:27:14.082Z,1019.70
2023-05-19T03:28:14.036Z,1019.77
2023-05-19T03:29:14.068Z,1019.74
2023-05-19T03:30:14.065Z,1019.70
2023-05-19T03:31:14.014Z,1019.71
2023-05-19T03:32:14.146Z,1019.72
2023-05-19T03:33:14.163Z,1019.76
2023-05-19T03:34:14.026Z,1019.74
2023-05-19T03:35:14.012Z,1019.76
2023-05-19T03:36:13.991Z,1019.76
2023-05-19T03:37:14.043Z,1019.79
2023-05-19T03:38:14.155Z,1019.75
2023-05-19T03:39:14.117Z,1019.79
2023-05-19T03:40:13.945Z,1019.80
2023-05-19T03:41:20.968Z,1019.77
2023-05-19T03:42:14.092Z,1019.79
2023-05-19T03:43:14.152Z,1019.80
2023-05-19T03:44:14.348Z,1019.82
2023-05-19T03:45:14.052Z,1019.80
2023-05-19T03:46:13.999Z,1019.80
2023-05-19T03:47:14.048Z,1019.84
2023-05-19T03:48:13.933Z,1019.82
2023-05-19T03:49:13.980Z,1019.84
2023-05-19T03:50:13.960Z,1019.84
2023-05-19T03:51:13.945Z,1019.81
2023-05-19T03:52:13.882Z,1019.84
2023-05-19T03:53:14.155Z,1019.83
2023-05-19T03:54:14.008Z,1019.85
2023-05-19T03:55:13.813Z,1019.86
2023-05-19T03:56:14.087Z,1019.87
2023-05-19T03:57:14.009Z,1019.86
2023-05-19T03:58:13.872Z,1019.89
2023-05-19T03:59:13.866Z,1019.86
2023-05-19T04:00:13.934Z,1019.85
2023-05-19T04:01:13.690Z,1019.92
2023-05-19T04:02:13.732Z,1019.86
2023-05-19T04:03:13.939Z,1019.84
2023-05-19T04:04:13.766Z,1019.85
2023-05-19T04:05:13.705Z,1019.86
2023-05-19T04:06:13.671Z,1019.80
2023-05-19T04:07:13.742Z,1019.85
2023-05-19T04:08:13.757Z,1019.90
2023-05-19T04:09:13.771Z,1019.87
2023-05-19T04:10:13.616Z,1019.89
2023-05-19T04:11:14.040Z,1019.88
2023-05-19T04:12:13.814Z,1019.85
2023-05-19T04:13:13.662Z,1019.86
2023-05-19T04:14:13.633Z,1019.90
2023-05-19T04:15:13.543Z,1019.89
2023-05-19T04:16:13.598Z,1019.97
2023-05-19T04:17:13.539Z,1019.90
2023-05-19T04:18:13.559Z,1019.94
2023-05-19T04:19:13.510Z,1019.94
2023-05-19T04:20:13.476Z,1019.97
2023-05-19T04:21:13.491Z,1019.96
2023-05-19T04:22:13.467Z,1019.97
2023-05-19T04:23:13.447Z,1020.00
2023-05-19T04:24:13.451Z,1020.00
2023-05-19T04:25:13.429Z,1020.03
2023-05-19T04:26:13.431Z,1020.00
2023-05-19T04:27:13.401Z,1020.00
2023-05-19T04:28:13.387Z,1019.97
2023-05-19T04:29:13.380Z,1020.03
2023-05-19T04:30:13.372Z,1019.97
2023-05-19T04:31:13.407Z,1020.08
2023-05-19T04:32:13.353Z,1020.00
2023-05-19T04:33:13.379Z,1019.99
2023-05-19T04:34:13.368Z,1020.04
2023-05-19T04:35:13.324Z,1020.01
2023-05-19T04:36:13.300Z,1020.00
2023-05-19T04:37:13.332Z,1020.01
2023-05-19T04:38:13.285Z,1019.99
2023-05-19T04:39:13.308Z,1020.02
2023-05-19T04:40:13.266Z,1020.03
2023-05-19T04:41:13.242Z,1020.00
2023-05-19T04:42:13.257Z,1020.01
2023-05-19T04:43:13.247Z,1019.99
2023-05-19T04:44:13.316Z,1020.02
2023-05-19T04:45:13.273Z,1019.99
2023-05-19T04:46:13.903Z,1019.93
2023-05-19T04:47:13.375Z,1019.98
2023-05-19T04:48:13.291Z,1020.01
2023-05-19T04:49:13.444Z,1019.99
2023-05-19T04:50:13.198Z,1020.02
2023-05-19T04:51:13.139Z,1020.05
2023-05-19T04:52:13.138Z,1020.04
2023-05-19T04:53:13.137Z,1019.98
2023-05-19T04:54:13.106Z,1020.01
2023-05-19T04:55:13.419Z,1019.97
2023-05-19T04:56:13.079Z,1019.99
2023-05-19T04:57:13.135Z,1020.01
2023-05-19T04:58:13.119Z,1019.98
2023-05-19T04:59:13.066Z,1019.96
2023-05-19T05:00:13.039Z,1019.94
2023-05-19T05:01:13.039Z,1019.98
2023-05-19T05:02:13.158Z,1019.94
2023-05-19T05:03:13.178Z,1019.98
2023-05-19T05:04:13.288Z,1019.91
2023-05-19T05:05:12.986Z,1019.97
2023-05-19T05:06:12.998Z,1019.98
2023-05-19T05:07:12.961Z,1019.95
2023-05-19T05:08:12.954Z,1019.98
2023-05-19T05:09:12.966Z,1019.92
2023-05-19T05:10:12.929Z,1019.94
2023-05-19T05:11:12.938Z,1019.94
2023-05-19T05:12:12.909Z,1019.97
2023-05-19T05:13:12.924Z,1019.96
2023-05-19T05:14:12.893Z,1019.94
2023-05-19T05:15:12.873Z,1019.93
2023-05-19T05:16:12.901Z,1019.91
2023-05-19T05:17:12.848Z,1019.95
2023-05-19T05:18:12.853Z,1019.98
2023-05-19T05:19:12.890Z,1019.95
2023-05-19T05:20:12.809Z,1019.97
2023-05-19T05:21:12.807Z,1019.93
2023-05-19T05:22:12.828Z,1019.98
2023-05-19T05:23:12.780Z,1019.96
2023-05-19T05:24:12.775Z,1019.96
2023-05-19T05:25:12.779Z,1019.90
2023-05-19T05:26:12.761Z,1019.93
2023-05-19T05:27:12.821Z,1019.93
2023-05-19T05:28:12.738Z,1019.94
2023-05-19T05:29:12.711Z,1019.94
2023-05-19T05:30:12.719Z,1019.95
2023-05-19T05:31:12.716Z,1019.96
2023-05-19T05:32:12.725Z,1019.95
2023-05-19T05:33:12.911Z,1019.97
2023-05-19T05:34:12.667Z,1019.94
2023-05-19T05:35:12.669Z,1019.92
2023-05-19T05:36:12.728Z,1019.97
2023-05-19T05:37:14.578Z,1019.91
2023-05-19T05:38:12.636Z,1019.89
2023-05-19T05:39:12.615Z,1019.88
2023-05-19T05:40:12.591Z,1019.90
2023-05-19T05:41:12.589Z,1019.86
2023-05-19T05:42:12.574Z,1019.83
2023-05-19T05:43:12.583Z,1019.83
2023-05-19T05:44:12.562Z,1019.83
2023-05-19T05:45:12.550Z,1019.84
2023-05-19T05:46:12.619Z,1019.84
2023-05-19T05:47:12.522Z,1019.87
2023-05-19T05:48:12.601Z,1019.86
2023-05-19T05:49:12.511Z,1019.84
2023-05-19T05:50:12.504Z,1019.88
2023-05-19T05:51:12.547Z,1019.86
2023-05-19T05:52:12.518Z,1019.84
2023-05-19T05:53:12.497Z,1019.85
2023-05-19T05:54:12.452Z,1019.86
2023-05-19T05:55:12.446Z,1019.88
2023-05-19T05:56:12.427Z,1019.89
2023-05-19T05:57:12.415Z,1019.85
2023-05-19T05:58:12.433Z,1019.81
2023-05-19T05:59:12.410Z,1019.85
2023-05-19T06:00:12.390Z,1019.82
2023-05-19T06:01:12.375Z,1019.81
2023-05-19T06:02:12.391Z,1019.82
2023-05-19T06:03:12.459Z,1019.83
2023-05-19T06:04:12.378Z,1019.83
2023-05-19T06:05:12.440Z,1019.83
2023-05-19T06:06:12.335Z,1019.83
2023-05-19T06:07:12.683Z,1019.82
2023-05-19T06:08:12.362Z,1019.83
2023-05-19T06:09:12.342Z,1019.85
2023-05-19T06:10:12.281Z,1019.85
2023-05-19T06:11:12.275Z,1019.86
2023-05-19T06:12:12.270Z,1019.86
2023-05-19T06:13:12.469Z,1019.87
2023-05-19T06:14:12.256Z,1019.84
2023-05-19T06:15:12.292Z,1019.81
2023-05-19T06:16:12.239Z,1019.84
2023-05-19T06:17:12.206Z,1019.83
2023-05-19T06:18:12.245Z,1019.85
2023-05-19T06:19:12.243Z,1019.84
2023-05-19T06:20:12.169Z,1019.82
2023-05-19T06:21:12.154Z,1019.83
2023-05-19T06:22:12.150Z,1019.83
2023-05-19T06:23:12.140Z,1019.74
2023-05-19T06:24:12.127Z,1019.75
2023-05-19T06:25:12.136Z,1019.76
2023-05-19T06:26:12.100Z,1019.72
2023-05-19T06:27:12.096Z,1019.78
2023-05-19T06:28:12.085Z,1019.77
2023-05-19T06:29:12.152Z,1019.76
2023-05-19T06:30:12.078Z,1019.69
2023-05-19T06:31:12.101Z,1019.72
2023-05-19T06:32:12.041Z,1019.70
2023-05-19T06:33:12.019Z,1019.68
2023-05-19T06:34:12.101Z,1019.68
2023-05-19T06:35:12.020Z,1019.71
2023-05-19T06:36:12.011Z,1019.66
2023-05-19T06:37:12.180Z,1019.73
2023-05-19T06:38:11.969Z,1019.69
2023-05-19T06:39:11.953Z,1019.67
2023-05-19T06:40:11.959Z,1019.68
2023-05-19T06:41:11.954Z,1019.67
2023-05-19T06:42:11.927Z,1019.72
2023-05-19T06:43:11.905Z,1019.75
2023-05-19T06:44:11.917Z,1019.67
2023-05-19T06:45:11.886Z,1019.71
2023-05-19T06:46:11.898Z,1019.69
2023-05-19T06:47:12.037Z,1019.73
2023-05-19T06:48:11.921Z,1019.70
2023-05-19T06:49:11.839Z,1019.73
2023-05-19T06:50:11.832Z,1019.73
2023-05-19T06:51:11.850Z,1019.74
2023-05-19T06:52:11.812Z,1019.74
2023-05-19T06:53:11.809Z,1019.78
2023-05-19T06:54:11.796Z,1019.79
2023-05-19T06:55:11.860Z,1019.75
2023-05-19T06:56:11.773Z,1019.76
2023-05-19T06:57:11.783Z,1019.80
2023-05-19T06:58:11.756Z,1019.78
2023-05-19T06:59:11.743Z,1019.80
2023-05-19T07:00:11.738Z,1019.73
2023-05-19T07:01:11.713Z,1019.78
2023-05-19T07:02:11.809Z,1019.78
2023-05-19T07:03:11.768Z,1019.77
2023-05-19T07:04:11.764Z,1019.81
2023-05-19T07:05:11.665Z,1019.75
2023-05-19T07:06:11.652Z,1019.80
2023-05-19T07:07:11.661Z,1019.78
2023-05-19T07:08:11.653Z,1019.76
2023-05-19T07:09:11.628Z,1019.73
2023-05-19T07:10:11.618Z,1019.72
2023-05-19T07:11:11.596Z,1019.71
2023-05-19T07:12:11.612Z,1019.71
2023-05-19T07:13:11.602Z,1019.66
2023-05-19T07:14:11.590Z,1019.66
2023-05-19T07:15:11.561Z,1019.64
2023-05-19T07:16:11.602Z,1019.69
2023-05-19T07:17:11.544Z,1019.61
2023-05-19T07:18:11.611Z,1019.71
2023-05-19T07:19:11.548Z,1019.70
2023-05-19T07:20:11.532Z,1019.66
2023-05-19T07:21:11.492Z,1019.63
2023-05-19T07:22:11.502Z,1019.66
2023-05-19T07:23:11.517Z,1019.62
2023-05-19T07:24:11.496Z,1019.59
2023-05-19T07:25:11.453Z,1019.54
2023-05-19T07:26:11.456Z,1019.58
2023-05-19T07:27:11.426Z,1019.57
2023-05-19T07:28:11.419Z,1019.59
2023-05-19T07:29:11.430Z,1019.58
2023-05-19T07:30:11.408Z,1019.56
2023-05-19T07:31:11.388Z,1019.58
2023-05-19T07:32:11.420Z,1019.53
2023-05-19T07:33:11.415Z,1019.56
2023-05-19T07:34:11.360Z,1019.57
2023-05-19T07:35:11.357Z,1019.54
2023-05-19T07:36:11.324Z,1019.54
2023-05-19T07:37:11.327Z,1019.55
2023-05-19T07:38:11.308Z,1019.59
2023-05-19T07:39:11.431Z,1019.55
2023-05-19T07:40:11.288Z,1019.56
2023-05-19T07:41:11.416Z,1019.56
2023-05-19T07:42:11.266Z,1019.56
2023-05-19T07:43:11.276Z,1019.57
2023-05-19T07:44:11.240Z,1019.52
2023-05-19T07:45:11.310Z,1019.50
2023-05-19T07:46:11.269Z,1019.47
2023-05-19T07:47:11.244Z,1019.49
2023-05-19T07:48:11.311Z,1019.46
2023-05-19T07:49:11.188Z,1019.46
2023-05-19T07:50:11.175Z,1019.45
2023-05-19T07:51:11.174Z,1019.45
2023-05-19T07:52:11.157Z,1019.38
2023-05-19T07:53:11.170Z,1019.44
2023-05-19T07:54:11.134Z,1019.46
2023-05-19T07:55:11.117Z,1019.41
2023-05-19T07:56:11.129Z,1019.38
2023-05-19T07:57:11.094Z,1019.38
2023-05-19T07:58:11.089Z,1019.34
2023-05-19T07:59:11.102Z,1019.36
2023-05-19T08:00:11.078Z,1019.35
2023-05-19T08:01:11.056Z,1019.38
2023-05-19T08:02:11.100Z,1019.39
2023-05-19T08:03:11.123Z,1019.36
2023-05-19T08:04:12.699Z,1019.39
2023-05-19T08:05:11.009Z,1019.37
2023-05-19T08:06:11.000Z,1019.35
2023-05-19T08:07:11.063Z,1019.29
2023-05-19T08:08:10.988Z,1019.33
2023-05-19T08:09:10.968Z,1019.32
2023-05-19T08:10:10.997Z,1019.29
2023-05-19T08:11:11.048Z,1019.31
2023-05-19T08:12:10.937Z,1019.26
2023-05-19T08:13:10.953Z,1019.30
2023-05-19T08:14:10.913Z,1019.28
2023-05-19T08:15:10.923Z,1019.15
2023-05-19T08:16:10.916Z,1019.25
2023-05-19T08:17:10.878Z,1019.21
2023-05-19T08:18:10.913Z,1019.27
2023-05-19T08:19:10.898Z,1019.31
2023-05-19T08:20:10.854Z,1019.27
2023-05-19T08:21:10.884Z,1019.30
2023-05-19T08:22:10.825Z,1019.29
2023-05-19T08:23:10.844Z,1019.28
2023-05-19T08:24:10.808Z,1019.26
2023-05-19T08:25:10.795Z,1019.25
2023-05-19T08:26:10.787Z,1019.19
2023-05-19T08:27:10.789Z,1019.22
2023-05-19T08:28:10.773Z,1019.19
2023-05-19T08:29:10.758Z,1019.17
2023-05-19T08:30:10.761Z,1019.15
2023-05-19T08:31:10.814Z,1019.18
2023-05-19T08:32:13.101Z,1019.16
2023-05-19T08:33:10.768Z,1019.15
2023-05-19T08:34:10.718Z,1019.12
2023-05-19T08:35:10.682Z,1019.15
2023-05-19T08:36:10.676Z,1019.14
2023-05-19T08:37:10.682Z,1019.14
2023-05-19T08:38:10.680Z,1019.05
2023-05-19T08:39:10.638Z,1019.01
2023-05-19T08:40:10.640Z,1019.00
2023-05-19T08:41:10.625Z,1019.05
2023-05-19T08:42:10.613Z,1018.98
2023-05-19T08:43:10.620Z,1018.99
2023-05-19T08:44:10.612Z,1019.02
2023-05-19T08:45:10.576Z,1018.98
2023-05-19T08:46:10.594Z,1018.98
2023-05-19T08:47:10.571Z,1018.97
2023-05-19T08:48:10.582Z,1018.96
2023-05-19T08:49:10.532Z,1018.95
2023-05-19T08:50:10.531Z,1018.96
2023-05-19T08:51:10.533Z,1018.98
2023-05-19T08:52:10.499Z,1018.94
2023-05-19T08:53:21.037Z,1018.90
2023-05-19T08:54:10.480Z,1018.88
2023-05-19T08:55:10.468Z,1018.85
2023-05-19T08:56:10.533Z,1018.83
2023-05-19T08:57:10.444Z,1018.89
2023-05-19T08:58:10.427Z,1018.87
2023-05-19T08:59:10.412Z,1018.90
2023-05-19T09:00:10.407Z,1018.83
2023-05-19T09:01:10.443Z,1018.78
2023-05-19T09:02:10.385Z,1018.79
2023-05-19T09:03:18.327Z,1018.72
2023-05-19T09:04:10.426Z,1018.75
2023-05-19T09:05:10.388Z,1018.72
2023-05-19T09:06:10.391Z,1018.78
2023-05-19T09:07:10.339Z,1018.82
2023-05-19T09:08:10.317Z,1018.83
2023-05-19T09:09:10.338Z,1018.79
2023-05-19T09:10:10.301Z,1018.76
2023-05-19T09:11:10.292Z,1018.79
2023-05-19T09:12:10.284Z,1018.72
2023-05-19T09:13:10.504Z,1018.78
2023-05-19T09:14:10.264Z,1018.72
2023-05-19T09:15:10.263Z,1018.79
2023-05-19T09:16:10.269Z,1018.75
2023-05-19T09:17:10.331Z,1018.71
2023-05-19T09:18:10.251Z,1018.72
2023-05-19T09:19:10.272Z,1018.68
2023-05-19T09:20:10.204Z,1018.66
2023-05-19T09:21:10.181Z,1018.55
2023-05-19T09:22:10.163Z,1018.53
2023-05-19T09:23:10.189Z,1018.60
2023-05-19T09:24:10.191Z,1018.67
2023-05-19T09:25:10.137Z,1018.62
2023-05-19T09:26:10.141Z,1018.64
2023-05-19T09:27:10.121Z,1018.66
2023-05-19T09:28:10.103Z,1018.72
2023-05-19T09:29:10.098Z,1018.68
2023-05-19T09:30:10.103Z,1018.67
2023-05-19T09:31:10.073Z,1018.65
2023-05-19T09:32:10.123Z,1018.65
2023-05-19T09:33:10.135Z,1018.67
2023-05-19T09:34:10.055Z,1018.64
2023-05-19T09:35:10.029Z,1018.62
2023-05-19T09:36:10.019Z,1018.58
2023-05-19T09:37:10.003Z,1018.61
2023-05-19T09:38:10.065Z,1018.59
2023-05-19T09:39:10.008Z,1018.62
2023-05-19T09:40:11.205Z,1018.56
2023-05-19T09:41:09.978Z,1018.58
2023-05-19T09:42:16.006Z,1018.57
2023-05-19T09:43:09.954Z,1018.54
2023-05-19T09:44:11.057Z,1018.50
2023-05-19T09:45:09.934Z,1018.51
2023-05-19T09:46:11.983Z,1018.54
2023-05-19T09:47:09.894Z,1018.53
2023-05-19T09:48:09.887Z,1018.49
2023-05-19T09:49:09.901Z,1018.55
2023-05-19T09:50:09.879Z,1018.53
2023-05-19T09:51:09.862Z,1018.53
2023-05-19T09:52:11.229Z,1018.47
2023-05-19T09:53:09.854Z,1018.43
2023-05-19T09:54:09.817Z,1018.49
2023-05-19T09:55:09.845Z,1018.42
2023-05-19T09:56:09.898Z,1018.45
2023-05-19T09:57:09.790Z,1018.47
2023-05-19T09:58:11.482Z,1018.50
2023-05-19T09:59:09.774Z,1018.51
2023-05-19T10:00:09.754Z,1018.47
2023-05-19T10:01:09.827Z,1018.49
2023-05-19T10:02:09.738Z,1018.43
2023-05-19T10:03:09.783Z,1018.41
2023-05-19T10:04:09.709Z,1018.45
2023-05-19T10:05:09.721Z,1018.42
2023-05-19T10:06:09.724Z,1018.40
2023-05-19T10:07:09.675Z,1018.39
2023-05-19T10:08:09.681Z,1018.40
2023-05-19T10:09:09.661Z,1018.32
2023-05-19T10:10:09.663Z,1018.34
2023-05-19T10:11:09.654Z,1018.32
2023-05-19T10:12:09.649Z,1018.33
2023-05-19T10:13:09.629Z,1018.30
2023-05-19T10:14:09.602Z,1018.27
2023-05-19T10:15:09.586Z,1018.29
2023-05-19T10:16:09.645Z,1018.24
2023-05-19T10:17:09.589Z,1018.18
2023-05-19T10:18:09.614Z,1018.04
2023-05-19T10:19:09.604Z,1018.23
2023-05-19T10:20:09.575Z,1018.25
2023-05-19T10:21:09.527Z,1018.31
2023-05-19T10:22:09.507Z,1018.30
2023-05-19T10:23:09.528Z,1018.35
2023-05-19T10:24:11.501Z,1018.37
2023-05-19T10:25:09.511Z,1018.33
2023-05-19T10:26:09.479Z,1018.32
2023-05-19T10:27:09.466Z,1018.27
2023-05-19T10:28:09.462Z,1018.22
2023-05-19T10:29:09.467Z,1018.22
2023-05-19T10:30:11.762Z,1018.23
2023-05-19T10:31:09.452Z,1018.24
2023-05-19T10:32:09.522Z,1018.25
2023-05-19T10:33:09.457Z,1018.19
2023-05-19T10:34:09.430Z,1018.23
2023-05-19T10:35:09.379Z,1018.25
2023-05-19T10:36:09.368Z,1018.21
2023-05-19T10:37:09.382Z,1018.23
2023-05-19T10:38:09.416Z,1018.20
2023-05-19T10:39:09.353Z,1018.13
2023-05-19T10:40:09.333Z,1018.25
2023-05-19T10:41:09.313Z,1018.17
2023-05-19T10:42:09.306Z,1018.19
2023-05-19T10:43:09.289Z,1018.30
2023-05-19T10:44:09.307Z,1018.29
2023-05-19T10:45:09.352Z,1018.28
2023-05-19T10:46:09.256Z,1018.25
2023-05-19T10:47:09.289Z,1018.38
2023-05-19T10:48:09.323Z,1018.30
2023-05-19T10:49:09.236Z,1018.07
2023-05-19T10:50:09.243Z,1018.09
2023-05-19T10:51:09.232Z,1018.03
2023-05-19T10:52:09.201Z,1018.17
2023-05-19T10:53:09.226Z,1018.01
2023-05-19T10:54:10.310Z,1018.04
2023-05-19T10:55:09.173Z,1018.25
2023-05-19T10:56:09.163Z,1018.07
2023-05-19T10:57:09.198Z,1018.01
2023-05-19T10:58:09.133Z,1018.22
2023-05-19T10:59:09.143Z,1017.96
2023-05-19T11:00:09.158Z,1018.21
2023-05-19T11:01:09.102Z,1018.15
2023-05-19T11:02:09.195Z,1018.28
2023-05-19T11:03:09.112Z,1017.98
2023-05-19T11:04:09.169Z,1017.96
2023-05-19T11:05:09.167Z,1018.09
2023-05-19T11:06:09.075Z,1017.96
2023-05-19T11:07:09.037Z,1017.87
2023-05-19T11:08:09.032Z,1017.92
2023-05-19T11:09:09.044Z,1017.92
2023-05-19T11:10:09.046Z,1017.93
2023-05-19T11:11:09.032Z,1018.03
2023-05-19T11:12:08.987Z,1017.94
2023-05-19T11:13:08.983Z,1017.90
2023-05-19T11:14:08.970Z,1017.88
2023-05-19T11:15:08.986Z,1017.97
2023-05-19T11:16:09.014Z,1017.90
2023-05-19T11:17:08.936Z,1017.92
2023-05-19T11:18:08.961Z,1017.97
2023-05-19T11:19:08.939Z,1018.11
2023-05-19T11:20:08.925Z,1018.08
2023-05-19T11:21:08.936Z,1018.15
2023-05-19T11:22:08.895Z,1018.14
2023-05-19T11:23:08.957Z,1018.17
2023-05-19T11:24:08.863Z,1018.15
2023-05-19T11:25:08.877Z,1018.12
2023-05-19T11:26:08.849Z,1018.09
2023-05-19T11:27:08.862Z,1018.10
2023-05-19T11:28:08.833Z,1018.12
2023-05-19T11:29:08.849Z,1018.04
2023-05-19T11:30:08.830Z,1018.06
2023-05-19T11:31:08.797Z,1018.19
2023-05-19T11:32:08.811Z,1018.14
2023-05-19T11:33:08.809Z,1018.17
2023-05-19T11:34:08.766Z,1018.18
2023-05-19T11:35:08.776Z,1018.18
2023-05-19T11:36:08.739Z,1017.87
2023-05-19T11:37:08.729Z,1017.84
2023-05-19T11:38:08.735Z,1017.78
2023-05-19T11:39:08.706Z,1017.82
2023-05-19T11:40:08.722Z,1017.92
2023-05-19T11:41:08.682Z,1017.83
2023-05-19T11:42:08.680Z,1017.86
2023-05-19T11:43:08.680Z,1017.82
2023-05-19T11:44:08.679Z,1017.77
2023-05-19T11:45:08.686Z,1017.78
2023-05-19T11:46:08.718Z,1017.79
2023-05-19T11:47:08.829Z,1017.77
2023-05-19T11:48:08.660Z,1017.97
2023-05-19T11:49:08.611Z,1017.96
2023-05-19T11:50:08.597Z,1017.89
2023-05-19T11:51:08.630Z,1017.91
2023-05-19T11:52:08.583Z,1017.92
2023-05-19T11:53:08.570Z,1017.98
2023-05-19T11:54:08.564Z,1017.81
2023-05-19T11:55:08.549Z,1017.72
2023-05-19T11:56:08.545Z,1017.70
2023-05-19T11:57:08.553Z,1017.77
2023-05-19T11:58:08.508Z,1017.76
2023-05-19T11:59:08.541Z,1017.74
2023-05-19T12:00:08.525Z,1017.75
2023-05-19T12:01:08.478Z,1017.72
2023-05-19T12:02:08.517Z,1017.92
2023-05-19T12:03:08.980Z,1017.92
2023-05-19T12:04:08.444Z,1017.89
2023-05-19T12:05:08.487Z,1017.81